sensor_id;sensor_type;location;lat;lon;timestamp;pressure;altitude;pressure_sealevel;temperature;humidity
50672;BME280;46021;55.882;37.654;2023-05-01T00:00:56;98610.66;;;5.27;90.72
50672;BME280;46021;55.882;37.654;2023-05-01T00:03:25;98613.16;;;5.30;91.57
50672;BME280;46021;55.882;37.654;2023-05-01T00:05:58;98608.81;;;5.32;90.70
50672;BME280;46021;55.882;37.654;2023-05-01T00:08:25;98598.47;;;5.32;90.94
50672;BME280;46021;55.882;37.654;2023-05-01T00:10:52;98600.22;;;5.32;91.51
50672;BME280;46021;55.882;37.654;2023-05-01T00:13:22;98606.25;;;5.31;91.72
50672;BME280;46021;55.882;37.654;2023-05-01T00:15:49;98607.19;;;5.28;91.30
50672;BME280;46021;55.882;37.654;2023-05-01T00:18:17;98607.94;;;5.33;91.72
50672;BME280;46021;55.882;37.654;2023-05-01T00:20:44;98600.16;;;5.33;90.92
50672;BME280;46021;55.882;37.654;2023-05-01T00:23:11;98600.09;;;5.35;90.45
50672;BME280;46021;55.882;37.654;2023-05-01T00:25:38;98597.47;;;5.36;90.99
50672;BME280;46021;55.882;37.654;2023-05-01T00:28:05;98601.66;;;5.40;91.50
50672;BME280;46021;55.882;37.654;2023-05-01T00:30:34;98609.34;;;5.43;90.96
50672;BME280;46021;55.882;37.654;2023-05-01T00:33:03;98610.22;;;5.42;91.33
50672;BME280;46021;55.882;37.654;2023-05-01T00:35:30;98617.94;;;5.44;91.54
50672;BME280;46021;55.882;37.654;2023-05-01T00:37:57;98621.47;;;5.41;90.70
50672;BME280;46021;55.882;37.654;2023-05-01T00:40:24;98630.97;;;5.41;90.75
50672;BME280;46021;55.882;37.654;2023-05-01T00:42:52;98618.91;;;5.40;90.62
50672;BME280;46021;55.882;37.654;2023-05-01T00:45:20;98612.97;;;5.36;89.90
50672;BME280;46021;55.882;37.654;2023-05-01T00:47:48;98610.41;;;5.36;90.30
50672;BME280;46021;55.882;37.654;2023-05-01T00:50:16;98601.84;;;5.34;90.67
50672;BME280;46021;55.882;37.654;2023-05-01T00:52:43;98597.47;;;5.36;91.19
50672;BME280;46021;55.882;37.654;2023-05-01T00:55:10;98582.16;;;5.30;90.44
50672;BME280;46021;55.882;37.654;2023-05-01T00:57:37;98565.84;;;5.28;91.42
50672;BME280;46021;55.882;37.654;2023-05-01T01:00:05;98565.16;;;5.21;90.42
50672;BME280;46021;55.882;37.654;2023-05-01T01:02:33;98565.31;;;5.17;90.83
50672;BME280;46021;55.882;37.654;2023-05-01T01:05:02;98564.50;;;5.15;90.36
50672;BME280;46021;55.882;37.654;2023-05-01T01:07:38;98576.50;;;5.16;90.55
50672;BME280;46021;55.882;37.654;2023-05-01T01:10:15;98581.69;;;5.16;91.25
50672;BME280;46021;55.882;37.654;2023-05-01T01:12:51;98597.94;;;5.19;91.93
50672;BME280;46021;55.882;37.654;2023-05-01T01:15:25;98603.03;;;5.22;91.27
50672;BME280;46021;55.882;37.654;2023-05-01T01:17:58;98617.59;;;5.25;91.15
50672;BME280;46021;55.882;37.654;2023-05-01T01:20:36;98612.53;;;5.22;91.27
50672;BME280;46021;55.882;37.654;2023-05-01T01:26:12;98628.63;;;5.32;91.06
50672;BME280;46021;55.882;37.654;2023-05-01T01:29:13;98617.28;;;5.37;92.03
50672;BME280;46021;55.882;37.654;2023-05-01T01:31:56;98616.38;;;5.38;90.86
50672;BME280;46021;55.882;37.654;2023-05-01T01:34:27;98613.16;;;5.30;90.96
50672;BME280;46021;55.882;37.654;2023-05-01T01:37:02;98623.44;;;5.33;91.75
50672;BME280;46021;55.882;37.654;2023-05-01T01:39:39;98615.69;;;5.33;91.89
50672;BME280;46021;55.882;37.654;2023-05-01T01:42:11;98603.56;;;5.35;91.88
50672;BME280;46021;55.882;37.654;2023-05-01T01:44:42;98585.47;;;5.35;91.92
50672;BME280;46021;55.882;37.654;2023-05-01T01:47:13;98575.03;;;5.38;91.50
50672;BME280;46021;55.882;37.654;2023-05-01T01:49:44;98586.16;;;5.40;91.25
50672;BME280;46021;55.882;37.654;2023-05-01T01:52:14;98574.22;;;5.36;91.25
50672;BME280;46021;55.882;37.654;2023-05-01T01:54:45;98570.75;;;5.37;91.60
50672;BME280;46021;55.882;37.654;2023-05-01T01:57:16;98566.44;;;5.38;91.79
50672;BME280;46021;55.882;37.654;2023-05-01T01:59:47;98551.06;;;5.33;91.22
50672;BME280;46021;55.882;37.654;2023-05-01T02:02:18;98565.50;;;5.40;91.28
50672;BME280;46021;55.882;37.654;2023-05-01T02:04:48;98574.16;;;5.39;91.50
50672;BME280;46021;55.882;37.654;2023-05-01T02:07:17;98571.53;;;5.41;91.70
50672;BME280;46021;55.882;37.654;2023-05-01T02:09:45;98567.97;;;5.45;90.85
50672;BME280;46021;55.882;37.654;2023-05-01T02:12:16;98552.44;;;5.45;91.18
50672;BME280;46021;55.882;37.654;2023-05-01T02:14:46;98545.53;;;5.45;91.02
50672;BME280;46021;55.882;37.654;2023-05-01T02:17:14;98557.66;;;5.43;90.71
50672;BME280;46021;55.882;37.654;2023-05-01T02:19:43;98563.69;;;5.42;90.95
50672;BME280;46021;55.882;37.654;2023-05-01T02:22:13;98584.47;;;5.39;90.52
50672;BME280;46021;55.882;37.654;2023-05-01T02:24:44;98559.44;;;5.41;90.60
50672;BME280;46021;55.882;37.654;2023-05-01T02:27:15;98551.66;;;5.43;91.46
50672;BME280;46021;55.882;37.654;2023-05-01T02:29:43;98560.09;;;5.48;91.60
50672;BME280;46021;55.882;37.654;2023-05-01T02:32:10;98555.00;;;5.46;90.40
50672;BME280;46021;55.882;37.654;2023-05-01T02:34:38;98542.84;;;5.50;90.71
50672;BME280;46021;55.882;37.654;2023-05-01T02:37:07;98542.00;;;5.48;91.29
50672;BME280;46021;55.882;37.654;2023-05-01T02:39:38;98544.72;;;5.43;90.49
50672;BME280;46021;55.882;37.654;2023-05-01T02:42:07;98560.97;;;5.49;91.22
50672;BME280;46021;55.882;37.654;2023-05-01T02:44:53;98582.47;;;5.49;91.08
50672;BME280;46021;55.882;37.654;2023-05-01T02:47:22;98597.75;;;5.57;90.52
50672;BME280;46021;55.882;37.654;2023-05-01T02:49:53;98607.06;;;5.62;91.40
50672;BME280;46021;55.882;37.654;2023-05-01T02:52:21;98626.00;;;5.63;91.03
50672;BME280;46021;55.882;37.654;2023-05-01T02:54:55;98634.53;;;5.66;90.50
50672;BME280;46021;55.882;37.654;2023-05-01T02:57:23;98635.38;;;5.67;90.38
50672;BME280;46021;55.882;37.654;2023-05-01T02:59:50;98647.50;;;5.65;90.26
50672;BME280;46021;55.882;37.654;2023-05-01T03:02:17;98638.88;;;5.66;90.62
50672;BME280;46021;55.882;37.654;2023-05-01T03:04:45;98633.63;;;5.69;90.09
50672;BME280;46021;55.882;37.654;2023-05-01T03:07:12;98636.19;;;5.69;90.40
50672;BME280;46021;55.882;37.654;2023-05-01T03:09:39;98625.75;;;5.72;90.80
50672;BME280;46021;55.882;37.654;2023-05-01T03:12:08;98619.59;;;5.76;90.29
50672;BME280;46021;55.882;37.654;2023-05-01T03:14:35;98610.81;;;5.82;90.48
50672;BME280;46021;55.882;37.654;2023-05-01T03:17:02;98605.50;;;5.86;90.71
50672;BME280;46021;55.882;37.654;2023-05-01T03:19:29;98601.78;;;5.97;90.41
50672;BME280;46021;55.882;37.654;2023-05-01T03:21:56;98585.97;;;6.06;90.71
50672;BME280;46021;55.882;37.654;2023-05-01T03:24:24;98589.88;;;6.19;91.29
50672;BME280;46021;55.882;37.654;2023-05-01T03:26:51;98598.72;;;6.39;91.06
50672;BME280;46021;55.882;37.654;2023-05-01T03:29:19;98596.34;;;6.59;91.50
50672;BME280;46021;55.882;37.654;2023-05-01T03:31:46;98595.84;;;6.75;90.73
50672;BME280;46021;55.882;37.654;2023-05-01T03:34:14;98602.41;;;6.85;90.27
50672;BME280;46021;55.882;37.654;2023-05-01T03:36:41;98606.88;;;6.80;88.83
50672;BME280;46021;55.882;37.654;2023-05-01T03:39:09;98614.56;;;6.83;88.83
50672;BME280;46021;55.882;37.654;2023-05-01T03:41:55;98607.63;;;6.83;88.74
50672;BME280;46021;55.882;37.654;2023-05-01T03:44:28;98608.38;;;6.87;89.01
50672;BME280;46021;55.882;37.654;2023-05-01T03:46:55;98611.75;;;6.89;88.53
50672;BME280;46021;55.882;37.654;2023-05-01T03:49:27;98619.63;;;6.86;87.97
50672;BME280;46021;55.882;37.654;2023-05-01T03:51:54;98612.97;;;6.79;87.57
50672;BME280;46021;55.882;37.654;2023-05-01T03:54:22;98611.56;;;6.69;86.93
50672;BME280;46021;55.882;37.654;2023-05-01T03:57:05;98614.34;;;6.64;87.16
50672;BME280;46021;55.882;37.654;2023-05-01T03:59:34;98615.16;;;6.64;87.10
50672;BME280;46021;55.882;37.654;2023-05-01T04:02:02;98613.38;;;6.67;86.97
50672;BME280;46021;55.882;37.654;2023-05-01T04:04:32;98615.06;;;6.68;87.00
50672;BME280;46021;55.882;37.654;2023-05-01T04:06:59;98606.53;;;6.66;86.83
50672;BME280;46021;55.882;37.654;2023-05-01T04:09:26;98610.25;;;6.57;86.28
50672;BME280;46021;55.882;37.654;2023-05-01T04:11:56;98619.34;;;6.69;87.07
50672;BME280;46021;55.882;37.654;2023-05-01T04:14:23;98614.78;;;6.77;87.26
50672;BME280;46021;55.882;37.654;2023-05-01T04:16:51;98615.31;;;6.87;87.70
50672;BME280;46021;55.882;37.654;2023-05-01T04:19:19;98609.72;;;6.97;87.97
50672;BME280;46021;55.882;37.654;2023-05-01T04:21:50;98611.22;;;7.05;87.08
50672;BME280;46021;55.882;37.654;2023-05-01T04:24:17;98607.97;;;6.99;86.47
50672;BME280;46021;55.882;37.654;2023-05-01T04:26:44;98622.38;;;7.07;86.49
50672;BME280;46021;55.882;37.654;2023-05-01T04:29:11;98638.34;;;6.94;85.35
50672;BME280;46021;55.882;37.654;2023-05-01T04:31:39;98629.97;;;6.86;85.03
50672;BME280;46021;55.882;37.654;2023-05-01T04:34:09;98629.31;;;6.81;85.63
50672;BME280;46021;55.882;37.654;2023-05-01T04:36:37;98629.41;;;6.78;85.59
50672;BME280;46021;55.882;37.654;2023-05-01T04:39:04;98626.84;;;6.76;86.02
50672;BME280;46021;55.882;37.654;2023-05-01T04:41:32;98635.59;;;6.74;85.82
50672;BME280;46021;55.882;37.654;2023-05-01T04:43:59;98627.41;;;6.59;85.21
50672;BME280;46021;55.882;37.654;2023-05-01T04:46:26;98642.84;;;6.62;85.54
50672;BME280;46021;55.882;37.654;2023-05-01T04:48:53;98642.94;;;6.59;85.99
50672;BME280;46021;55.882;37.654;2023-05-01T04:51:22;98648.03;;;6.62;86.42
50672;BME280;46021;55.882;37.654;2023-05-01T04:53:50;98650.47;;;6.67;86.40
50672;BME280;46021;55.882;37.654;2023-05-01T04:56:24;98636.69;;;6.67;86.76
50672;BME280;46021;55.882;37.654;2023-05-01T04:58:56;98641.59;;;6.74;86.24
50672;BME280;46021;55.882;37.654;2023-05-01T05:01:26;98654.28;;;6.82;87.13
50672;BME280;46021;55.882;37.654;2023-05-01T05:03:53;98645.66;;;6.83;86.15
50672;BME280;46021;55.882;37.654;2023-05-01T05:06:22;98642.25;;;6.81;86.04
50672;BME280;46021;55.882;37.654;2023-05-01T05:08:49;98643.94;;;6.82;86.35
50672;BME280;46021;55.882;37.654;2023-05-01T05:11:17;98643.97;;;6.80;86.05
50672;BME280;46021;55.882;37.654;2023-05-01T05:14:03;98635.16;;;6.86;86.75
50672;BME280;46021;55.882;37.654;2023-05-01T05:16:31;98651.19;;;6.97;86.39
50672;BME280;46021;55.882;37.654;2023-05-01T05:18:59;98649.66;;;6.92;86.65
50672;BME280;46021;55.882;37.654;2023-05-01T05:21:30;98648.72;;;6.94;86.29
50672;BME280;46021;55.882;37.654;2023-05-01T05:23:58;98648.72;;;6.94;86.21
50672;BME280;46021;55.882;37.654;2023-05-01T05:26:26;98648.84;;;6.90;85.73
50672;BME280;46021;55.882;37.654;2023-05-01T05:28:56;98650.69;;;6.86;86.02
50672;BME280;46021;55.882;37.654;2023-05-01T05:31:24;98649.50;;;6.96;86.05
50672;BME280;46021;55.882;37.654;2023-05-01T05:33:51;98648.72;;;6.94;85.47
50672;BME280;46021;55.882;37.654;2023-05-01T05:36:19;98647.75;;;6.97;85.32
50672;BME280;46021;55.882;37.654;2023-05-01T05:38:48;98650.41;;;6.95;82.73
50672;BME280;46021;55.882;37.654;2023-05-01T05:41:17;98655.41;;;7.01;85.65
50672;BME280;46021;55.882;37.654;2023-05-01T05:43:46;98648.41;;;7.03;85.85
50672;BME280;46021;55.882;37.654;2023-05-01T05:46:14;98657.56;;;7.14;86.06
50672;BME280;46021;55.882;37.654;2023-05-01T05:48:41;98656.50;;;7.19;85.71
50672;BME280;46021;55.882;37.654;2023-05-01T05:51:09;98654.00;;;7.16;85.41
50672;BME280;46021;55.882;37.654;2023-05-01T05:53:36;98658.81;;;7.27;85.38
50672;BME280;46021;55.882;37.654;2023-05-01T05:56:06;98668.97;;;7.33;85.10
50672;BME280;46021;55.882;37.654;2023-05-01T05:58:33;98673.03;;;7.40;86.05
50672;BME280;46021;55.882;37.654;2023-05-01T06:01:00;98672.03;;;7.45;85.44
50672;BME280;46021;55.882;37.654;2023-05-01T06:03:28;98678.13;;;7.44;84.32
50672;BME280;46021;55.882;37.654;2023-05-01T06:06:00;98681.50;;;7.46;84.30
50672;BME280;46021;55.882;37.654;2023-05-01T06:08:27;98684.84;;;7.49;84.31
50672;BME280;46021;55.882;37.654;2023-05-01T06:10:54;98678.69;;;7.52;84.28
50672;BME280;46021;55.882;37.654;2023-05-01T06:13:25;98677.69;;;7.56;84.29
50672;BME280;46021;55.882;37.654;2023-05-01T06:15:52;98669.13;;;7.54;84.08
50672;BME280;46021;55.882;37.654;2023-05-01T06:18:19;98675.78;;;7.61;84.44
50672;BME280;46021;55.882;37.654;2023-05-01T06:20:46;98684.19;;;7.68;84.09
50672;BME280;46021;55.882;37.654;2023-05-01T06:23:14;98684.94;;;7.71;83.93
50672;BME280;46021;55.882;37.654;2023-05-01T06:25:49;98693.31;;;7.78;83.45
50672;BME280;46021;55.882;37.654;2023-05-01T06:28:17;98690.63;;;7.81;82.83
50672;BME280;46021;55.882;37.654;2023-05-01T06:30:45;98694.94;;;7.80;82.54
50672;BME280;46021;55.882;37.654;2023-05-01T06:33:15;98698.47;;;7.79;81.68
50672;BME280;46021;55.882;37.654;2023-05-01T06:35:44;98694.56;;;7.91;81.87
50672;BME280;46021;55.882;37.654;2023-05-01T06:38:11;98699.38;;;8.02;81.30
50672;BME280;46021;55.882;37.654;2023-05-01T06:40:38;98699.56;;;8.19;81.33
50672;BME280;46021;55.882;37.654;2023-05-01T06:43:06;98704.06;;;8.38;80.71
50672;BME280;46021;55.882;37.654;2023-05-01T06:45:33;98694.94;;;8.51;80.78
50672;BME280;46021;55.882;37.654;2023-05-01T06:48:02;98713.13;;;8.73;80.58
50672;BME280;46021;55.882;37.654;2023-05-01T06:50:30;98701.19;;;8.90;79.76
50672;BME280;46021;55.882;37.654;2023-05-01T06:52:58;98684.03;;;8.86;77.84
50672;BME280;46021;55.882;37.654;2023-05-01T06:55:27;98697.75;;;8.89;76.36
50672;BME280;46021;55.882;37.654;2023-05-01T06:57:56;98705.66;;;8.86;75.41
50672;BME280;46021;55.882;37.654;2023-05-01T07:00:23;98714.63;;;8.79;74.52
50672;BME280;46021;55.882;37.654;2023-05-01T07:02:51;98721.81;;;8.72;74.05
50672;BME280;46021;55.882;37.654;2023-05-01T07:05:19;98723.78;;;8.66;72.80
50672;BME280;46021;55.882;37.654;2023-05-01T07:07:47;98732.00;;;8.77;73.93
50672;BME280;46021;55.882;37.654;2023-05-01T07:10:15;98730.81;;;8.86;73.42
50672;BME280;46021;55.882;37.654;2023-05-01T07:12:42;98744.31;;;8.94;72.32
50672;BME280;46021;55.882;37.654;2023-05-01T07:15:09;98732.72;;;9.03;72.33
50672;BME280;46021;55.882;37.654;2023-05-01T07:17:36;98742.53;;;8.96;70.95
50672;BME280;46021;55.882;37.654;2023-05-01T07:20:05;98748.19;;;9.06;71.30
50672;BME280;46021;55.882;37.654;2023-05-01T07:22:34;98755.34;;;9.01;70.56
50672;BME280;46021;55.882;37.654;2023-05-01T07:25:01;98753.50;;;9.03;70.34
50672;BME280;46021;55.882;37.654;2023-05-01T07:27:28;98748.19;;;9.06;68.55
50672;BME280;46021;55.882;37.654;2023-05-01T07:29:55;98761.03;;;9.31;70.72
50672;BME280;46021;55.882;37.654;2023-05-01T07:32:23;98761.09;;;9.29;70.28
50672;BME280;46021;55.882;37.654;2023-05-01T07:34:50;98761.34;;;9.23;69.65
50672;BME280;46021;55.882;37.654;2023-05-01T07:37:17;98743.16;;;9.23;69.92
50672;BME280;46021;55.882;37.654;2023-05-01T07:39:45;98763.00;;;9.46;69.85
50672;BME280;46021;55.882;37.654;2023-05-01T07:42:13;98764.47;;;9.72;70.37
50672;BME280;46021;55.882;37.654;2023-05-01T07:44:40;98772.72;;;10.03;70.26
50672;BME280;46021;55.882;37.654;2023-05-01T07:47:07;98769.63;;;10.34;69.96
50672;BME280;46021;55.882;37.654;2023-05-01T07:49:35;98774.59;;;10.58;69.28
50672;BME280;46021;55.882;37.654;2023-05-01T07:52:03;98770.06;;;10.80;68.14
50672;BME280;46021;55.882;37.654;2023-05-01T07:54:32;98765.19;;;10.91;67.73
50672;BME280;46021;55.882;37.654;2023-05-01T07:57:01;98770.50;;;11.07;66.08
50672;BME280;46021;55.882;37.654;2023-05-01T07:59:28;98776.22;;;11.16;66.58
50672;BME280;46021;55.882;37.654;2023-05-01T08:01:56;98774.91;;;11.24;65.74
50672;BME280;46021;55.882;37.654;2023-05-01T08:04:23;98778.84;;;11.33;65.42
50672;BME280;46021;55.882;37.654;2023-05-01T08:06:50;98785.97;;;11.29;64.36
50672;BME280;46021;55.882;37.654;2023-05-01T08:09:17;98780.81;;;11.28;64.29
50672;BME280;46021;55.882;37.654;2023-05-01T08:11:45;98792.34;;;11.41;64.02
50672;BME280;46021;55.882;37.654;2023-05-01T08:14:13;98791.22;;;11.10;61.16
50672;BME280;46021;55.882;37.654;2023-05-01T08:16:42;98791.28;;;10.91;61.25
50672;BME280;46021;55.882;37.654;2023-05-01T08:19:09;98792.78;;;10.59;60.93
50672;BME280;46021;55.882;37.654;2023-05-01T08:21:36;98807.59;;;10.59;61.64
50672;BME280;46021;55.882;37.654;2023-05-01T08:24:08;98799.13;;;10.53;61.60
50672;BME280;46021;55.882;37.654;2023-05-01T08:26:36;98812.63;;;10.62;61.04
50672;BME280;46021;55.882;37.654;2023-05-01T08:29:03;98812.78;;;10.59;60.91
50672;BME280;46021;55.882;37.654;2023-05-01T08:31:32;98812.22;;;10.71;61.49
50672;BME280;46021;55.882;37.654;2023-05-01T08:34:02;98819.84;;;10.76;61.56
50672;BME280;46021;55.882;37.654;2023-05-01T08:36:29;98817.56;;;10.87;61.06
50672;BME280;46021;55.882;37.654;2023-05-01T08:38:57;98819.03;;;10.92;60.56
50672;BME280;46021;55.882;37.654;2023-05-01T08:41:26;98833.47;;;10.81;59.98
50672;BME280;46021;55.882;37.654;2023-05-01T08:43:55;98848.28;;;10.61;59.48
50672;BME280;46021;55.882;37.654;2023-05-01T08:46:28;98840.91;;;10.31;59.88
50672;BME280;46021;55.882;37.654;2023-05-01T08:49:01;98856.38;;;9.95;60.39
50672;BME280;46021;55.882;37.654;2023-05-01T08:51:31;98855.19;;;10.02;60.87
50672;BME280;46021;55.882;37.654;2023-05-01T08:54:00;98852.19;;;9.91;61.21
50672;BME280;46021;55.882;37.654;2023-05-01T08:56:29;98855.59;;;9.93;61.66
50672;BME280;46021;55.882;37.654;2023-05-01T08:58:59;98859.56;;;9.81;62.14
50672;BME280;46021;55.882;37.654;2023-05-01T09:01:30;98856.94;;;9.61;62.35
50672;BME280;46021;55.882;37.654;2023-05-01T09:04:02;98864.31;;;9.49;63.18
50672;BME280;46021;55.882;37.654;2023-05-01T09:06:29;98853.97;;;9.48;63.27
50672;BME280;46021;55.882;37.654;2023-05-01T09:08:57;98874.38;;;9.36;63.36
50672;BME280;46021;55.882;37.654;2023-05-01T09:11:26;98876.13;;;9.14;61.86
50672;BME280;46021;55.882;37.654;2023-05-01T09:13:53;98890.50;;;9.01;62.32
50672;BME280;46021;55.882;37.654;2023-05-01T09:16:21;98877.34;;;9.27;62.00
50672;BME280;46021;55.882;37.654;2023-05-01T09:18:49;98883.50;;;9.25;61.13
50672;BME280;46021;55.882;37.654;2023-05-01T09:21:18;98883.75;;;9.41;61.62
50672;BME280;46021;55.882;37.654;2023-05-01T09:23:45;98880.25;;;9.42;61.41
50672;BME280;46021;55.882;37.654;2023-05-01T09:26:16;98883.75;;;9.41;61.25
50672;BME280;46021;55.882;37.654;2023-05-01T09:28:45;98891.91;;;9.53;61.07
50672;BME280;46021;55.882;37.654;2023-05-01T09:31:20;98895.13;;;9.81;60.59
50672;BME280;46021;55.882;37.654;2023-05-01T09:33:51;98889.28;;;9.96;60.65
50672;BME280;46021;55.882;37.654;2023-05-01T09:36:22;98900.00;;;10.31;60.30
50672;BME280;46021;55.882;37.654;2023-05-01T09:38:49;98896.00;;;10.43;59.79
50672;BME280;46021;55.882;37.654;2023-05-01T09:41:16;98893.59;;;10.59;59.63
50672;BME280;46021;55.882;37.654;2023-05-01T09:43:48;98887.56;;;10.57;59.01
50672;BME280;46021;55.882;37.654;2023-05-01T09:46:17;98905.69;;;10.60;58.28
50672;BME280;46021;55.882;37.654;2023-05-01T09:48:54;98896.78;;;10.45;57.71
50672;BME280;46021;55.882;37.654;2023-05-01T09:51:26;98904.66;;;10.43;58.31
50672;BME280;46021;55.882;37.654;2023-05-01T09:53:55;98894.31;;;10.42;58.52
50672;BME280;46021;55.882;37.654;2023-05-01T09:56:24;98895.94;;;10.24;58.24
50672;BME280;46021;55.882;37.654;2023-05-01T09:58:52;98891.59;;;10.04;58.27
50672;BME280;46021;55.882;37.654;2023-05-01T10:01:36;98896.13;;;9.99;58.02
50672;BME280;46021;55.882;37.654;2023-05-01T10:04:04;98900.56;;;10.17;58.44
50672;BME280;46021;55.882;37.654;2023-05-01T10:06:33;98901.69;;;10.11;58.25
50672;BME280;46021;55.882;37.654;2023-05-01T10:09:02;98909.66;;;10.27;57.43
50672;BME280;46021;55.882;37.654;2023-05-01T10:11:29;98906.72;;;10.14;57.76
50672;BME280;46021;55.882;37.654;2023-05-01T10:14:06;98911.56;;;10.24;57.66
50672;BME280;46021;55.882;37.654;2023-05-01T10:16:35;98921.09;;;10.45;58.10
50672;BME280;46021;55.882;37.654;2023-05-01T10:19:03;98924.84;;;10.59;57.76
50672;BME280;46021;55.882;37.654;2023-05-01T10:21:31;98924.06;;;10.15;57.58
50672;BME280;46021;55.882;37.654;2023-05-01T10:24:01;98927.78;;;9.67;58.62
50672;BME280;46021;55.882;37.654;2023-05-01T10:26:32;98932.63;;;9.32;59.39
50672;BME280;46021;55.882;37.654;2023-05-01T10:28:59;98944.84;;;9.30;59.23
50672;BME280;46021;55.882;37.654;2023-05-01T10:31:27;98939.75;;;9.27;59.96
50672;BME280;46021;55.882;37.654;2023-05-01T10:33:54;98953.53;;;9.29;59.88
50672;BME280;46021;55.882;37.654;2023-05-01T10:36:25;98952.78;;;9.04;60.59
50672;BME280;46021;55.882;37.654;2023-05-01T10:38:54;98961.34;;;8.58;61.95
50672;BME280;46021;55.882;37.654;2023-05-01T10:44:25;98976.03;;;8.33;63.33
50672;BME280;46021;55.882;37.654;2023-05-01T10:46:52;98981.75;;;8.17;63.68
50672;BME280;46021;55.882;37.654;2023-05-01T10:49:20;99005.50;;;8.05;64.74
50672;BME280;46021;55.882;37.654;2023-05-01T10:52:00;99003.53;;;7.87;64.82
50672;BME280;46021;55.882;37.654;2023-05-01T10:54:29;98998.22;;;7.61;65.29
50672;BME280;46021;55.882;37.654;2023-05-01T10:56:58;99010.66;;;7.50;65.69
50672;BME280;46021;55.882;37.654;2023-05-01T10:59:27;99020.47;;;7.40;65.57
50672;BME280;46021;55.882;37.654;2023-05-01T11:02:20;99028.63;;;7.28;66.39
50672;BME280;46021;55.882;37.654;2023-05-01T11:04:49;99045.69;;;7.06;66.30
50672;BME280;46021;55.882;37.654;2023-05-01T11:07:21;99047.97;;;6.85;66.92
50672;BME280;46021;55.882;37.654;2023-05-01T11:09:50;99058.81;;;6.67;68.01
50672;BME280;46021;55.882;37.654;2023-05-01T11:12:47;99058.16;;;6.58;68.40
50672;BME280;46021;55.882;37.654;2023-05-01T11:15:33;99061.84;;;6.48;68.66
50672;BME280;46021;55.882;37.654;2023-05-01T11:18:01;99073.94;;;6.49;68.46
50672;BME280;46021;55.882;37.654;2023-05-01T11:20:48;99065.03;;;6.23;69.37
50672;BME280;46021;55.882;37.654;2023-05-01T11:23:20;99062.03;;;6.06;69.66
50672;BME280;46021;55.882;37.654;2023-05-01T11:25:47;99069.34;;;5.85;69.63
50672;BME280;46021;55.882;37.654;2023-05-01T11:28:20;99075.97;;;5.99;69.78
50672;BME280;46021;55.882;37.654;2023-05-01T11:30:49;99084.97;;;5.81;70.38
50672;BME280;46021;55.882;37.654;2023-05-01T11:33:23;99090.06;;;5.84;70.37
50672;BME280;46021;55.882;37.654;2023-05-01T11:35:59;99088.53;;;5.77;70.50
50672;BME280;46021;55.882;37.654;2023-05-01T11:38:26;99103.25;;;5.73;70.09
50672;BME280;46021;55.882;37.654;2023-05-01T11:40:58;99115.06;;;5.85;70.16
50672;BME280;46021;55.882;37.654;2023-05-01T11:43:26;99103.94;;;5.81;70.69
50672;BME280;46021;55.882;37.654;2023-05-01T11:45:54;99110.75;;;5.84;70.70
50672;BME280;46021;55.882;37.654;2023-05-01T11:48:28;99108.06;;;5.90;70.33
50672;BME280;46021;55.882;37.654;2023-05-01T11:50:56;99119.31;;;5.88;71.10
50672;BME280;46021;55.882;37.654;2023-05-01T11:53:23;99112.34;;;5.90;70.68
50672;BME280;46021;55.882;37.654;2023-05-01T11:55:51;99119.28;;;5.89;70.67
50672;BME280;46021;55.882;37.654;2023-05-01T11:58:29;99113.97;;;5.97;70.41
50672;BME280;46021;55.882;37.654;2023-05-01T12:00:59;99122.28;;;6.11;70.63
50672;BME280;46021;55.882;37.654;2023-05-01T12:03:26;99124.94;;;6.08;70.59
50672;BME280;46021;55.882;37.654;2023-05-01T12:05:54;99126.94;;;5.95;71.42
50672;BME280;46021;55.882;37.654;2023-05-01T12:08:22;99138.00;;;6.02;70.25
50672;BME280;46021;55.882;37.654;2023-05-01T12:10:51;99141.53;;;5.99;70.83
50672;BME280;46021;55.882;37.654;2023-05-01T12:13:20;99149.38;;;5.93;70.71
50672;BME280;46021;55.882;37.654;2023-05-01T12:15:49;99158.25;;;5.81;70.69
50672;BME280;46021;55.882;37.654;2023-05-01T12:18:19;99158.72;;;5.58;72.21
50672;BME280;46021;55.882;37.654;2023-05-01T12:20:48;99167.72;;;5.39;72.50
50672;BME280;46021;55.882;37.654;2023-05-01T12:23:18;99160.22;;;5.25;72.60
50672;BME280;46021;55.882;37.654;2023-05-01T12:25:45;99180.88;;;5.25;73.49
50672;BME280;46021;55.882;37.654;2023-05-01T12:28:13;99179.13;;;5.27;73.85
50672;BME280;46021;55.882;37.654;2023-05-01T12:30:42;99182.59;;;5.26;74.03
50672;BME280;46021;55.882;37.654;2023-05-01T12:33:12;99177.34;;;5.29;74.28
50672;BME280;46021;55.882;37.654;2023-05-01T12:35:42;99181.03;;;5.17;74.19
50672;BME280;46021;55.882;37.654;2023-05-01T12:38:14;99177.47;;;5.23;73.99
50672;BME280;46021;55.882;37.654;2023-05-01T12:40:52;99179.38;;;5.15;74.62
50672;BME280;46021;55.882;37.654;2023-05-01T12:43:21;99184.41;;;5.21;73.52
50672;BME280;46021;55.882;37.654;2023-05-01T12:45:51;99194.69;;;5.24;73.48
50672;BME280;46021;55.882;37.654;2023-05-01T12:48:20;99208.31;;;5.32;73.64
50672;BME280;46021;55.882;37.654;2023-05-01T12:50:49;99209.28;;;5.26;74.79
50672;BME280;46021;55.882;37.654;2023-05-01T12:53:19;99210.03;;;5.33;73.77
50672;BME280;46021;55.882;37.654;2023-05-01T12:55:49;99210.88;;;5.34;73.08
50672;BME280;46021;55.882;37.654;2023-05-01T12:58:16;99205.84;;;5.27;74.16
50672;BME280;46021;55.882;37.654;2023-05-01T13:00:44;99223.94;;;5.26;74.46
50672;BME280;46021;55.882;37.654;2023-05-01T13:03:12;99219.91;;;5.11;74.52
50672;BME280;46021;55.882;37.654;2023-05-01T13:05:56;99214.69;;;5.14;74.25
50672;BME280;46021;55.882;37.654;2023-05-01T13:08:29;99230.28;;;5.08;74.01
50672;BME280;46021;55.882;37.654;2023-05-01T13:10:58;99230.06;;;5.20;73.68
50672;BME280;46021;55.882;37.654;2023-05-01T13:13:27;99237.84;;;5.19;74.05
50672;BME280;46021;55.882;37.654;2023-05-01T13:16:06;99236.09;;;5.21;74.73